createdAt,value
2019-02-08T00:01:09.493Z,100116.66
2019-02-08T00:03:38.042Z,100111.48
2019-02-08T00:06:06.599Z,100110.69
2019-02-08T00:08:35.172Z,100126.74
2019-02-08T00:11:03.740Z,100108.73
2019-02-08T00:13:32.350Z,100111.59
2019-02-08T00:16:00.913Z,100114.98
2019-02-08T00:18:29.466Z,100118.17
2019-02-08T00:20:58.060Z,100115.11
2019-02-08T00:23:27.527Z,100131.70
2019-02-08T00:25:56.165Z,100126.52
2019-02-08T00:28:24.786Z,100118.17
2019-02-08T00:30:53.356Z,100128.64
2019-02-08T00:33:21.902Z,100123.16
2019-02-08T00:35:50.500Z,100136.88
2019-02-08T00:38:19.428Z,100133.03
2019-02-08T00:40:47.969Z,100142.77
2019-02-08T00:43:16.561Z,100139.94
2019-02-08T00:45:45.121Z,100136.57
2019-02-08T00:48:13.667Z,100147.03
2019-02-08T00:50:42.245Z,100141.74
2019-02-08T00:53:10.848Z,100142.33
2019-02-08T00:55:39.676Z,100148.04
2019-02-08T00:58:08.346Z,100147.45
2019-02-08T01:00:36.897Z,100148.36
2019-02-08T01:03:05.450Z,100142.27
2019-02-08T01:05:34.033Z,100143.88
2019-02-08T01:08:02.578Z,100142.55
2019-02-08T01:10:31.153Z,100147.94
2019-02-08T01:13:00.216Z,100152.84
2019-02-08T01:15:28.854Z,100154.97
2019-02-08T01:17:57.594Z,100161.09
2019-02-08T01:20:26.164Z,100165.85
2019-02-08T01:22:54.734Z,100164.02
2019-02-08T01:25:24.305Z,100167.80
2019-02-08T01:27:52.948Z,100160.67
2019-02-08T01:30:26.695Z,100170.23
2019-02-08T01:32:55.254Z,100168.11
2019-02-08T01:35:24.861Z,100169.94
2019-02-08T01:37:53.970Z,100169.10
2019-02-08T01:40:24.997Z,100171.75
2019-02-08T01:42:53.548Z,100165.16
2019-02-08T01:45:23.851Z,100171.04
2019-02-08T01:47:52.402Z,100175.11
2019-02-08T01:50:22.720Z,100170.52
2019-02-08T01:52:51.294Z,100169.71
2019-02-08T01:55:19.872Z,100172.24
2019-02-08T01:57:48.980Z,100177.23
2019-02-08T02:00:19.857Z,100175.47
2019-02-08T02:02:48.408Z,100176.27
2019-02-08T02:05:16.962Z,100173.00
2019-02-08T02:07:45.963Z,100171.90
2019-02-08T02:10:36.396Z,100171.20
2019-02-08T02:13:06.212Z,100172.40
2019-02-08T02:15:34.850Z,100176.77
2019-02-08T02:18:04.546Z,100179.20
2019-02-08T02:20:36.061Z,100171.19
2019-02-08T02:23:06.114Z,100171.48
2019-02-08T02:25:34.684Z,100171.88
2019-02-08T02:28:03.393Z,100170.77
2019-02-08T02:30:33.653Z,100178.50
2019-02-08T02:33:03.036Z,100174.95
2019-02-08T02:35:31.929Z,100177.38
2019-02-08T02:38:00.494Z,100181.32
2019-02-08T02:40:29.032Z,100182.13
2019-02-08T02:42:57.612Z,100186.66
2019-02-08T02:45:28.486Z,100181.28
2019-02-08T02:47:57.032Z,100187.05
2019-02-08T02:50:25.605Z,100189.28
2019-02-08T02:52:54.181Z,100189.48
2019-02-08T02:55:23.951Z,100193.23
2019-02-08T02:57:52.603Z,100190.91
2019-02-08T03:00:32.864Z,100191.45
2019-02-08T03:03:01.440Z,100194.34
2019-02-08T03:05:30.025Z,100190.14
2019-02-08T03:07:58.566Z,100188.53
2019-02-08T03:10:27.156Z,100191.34
2019-02-08T03:12:55.701Z,100193.90
2019-02-08T03:15:24.605Z,100193.21
2019-02-08T03:17:53.194Z,100192.66
2019-02-08T03:20:21.779Z,100191.26
2019-02-08T03:22:50.323Z,100194.98
2019-02-08T03:25:21.107Z,100193.81
2019-02-08T03:27:49.686Z,100199.14
2019-02-08T03:30:26.456Z,100194.95
2019-02-08T03:32:54.989Z,100199.47
2019-02-08T03:35:24.045Z,100200.91
2019-02-08T03:37:52.614Z,100197.11
2019-02-08T03:40:25.607Z,100203.50
2019-02-08T03:42:54.252Z,100198.72
2019-02-08T03:45:23.014Z,100198.23
2019-02-08T03:47:51.871Z,100198.19
2019-02-08T03:50:20.991Z,100197.39
2019-02-08T03:52:49.623Z,100200.83
2019-02-08T03:55:19.431Z,100189.64
2019-02-08T03:57:48.009Z,100189.84
2019-02-08T04:00:26.487Z,100191.28
2019-02-08T04:02:55.037Z,100194.39
2019-02-08T04:05:23.586Z,100189.84
2019-02-08T04:07:52.169Z,100184.49
2019-02-08T04:10:21.307Z,100181.45
2019-02-08T04:12:49.968Z,100185.20
2019-02-08T04:15:18.573Z,100181.37
2019-02-08T04:17:47.118Z,100179.30
2019-02-08T04:20:16.614Z,100185.28
2019-02-08T04:22:45.185Z,100181.73
2019-02-08T04:25:14.635Z,100181.49
2019-02-08T04:27:43.215Z,100183.21
2019-02-08T04:30:15.615Z,100176.14
2019-02-08T04:32:44.191Z,100184.72
2019-02-08T04:35:12.735Z,100174.73
2019-02-08T04:37:41.327Z,100182.01
2019-02-08T04:40:10.004Z,100186.95
2019-02-08T04:42:38.577Z,100184.31
2019-02-08T04:45:07.880Z,100183.80
2019-02-08T04:47:36.511Z,100186.23
2019-02-08T04:50:06.991Z,100179.05
2019-02-08T04:52:35.542Z,100178.57
2019-02-08T04:55:04.883Z,100172.27
2019-02-08T04:57:33.430Z,100173.30
2019-02-08T05:00:02.016Z,100177.09
2019-02-08T05:02:30.558Z,100179.37
2019-02-08T05:04:59.107Z,100192.84
2019-02-08T05:07:27.691Z,100186.33
2019-02-08T05:09:56.238Z,100184.29
2019-02-08T05:12:24.786Z,100189.08
2019-02-08T05:14:53.378Z,100187.01
2019-02-08T05:17:21.930Z,100183.61
2019-02-08T05:19:50.473Z,100185.24
2019-02-08T05:22:19.073Z,100188.00
2019-02-08T05:24:47.622Z,100182.52
2019-02-08T05:27:16.194Z,100184.62
2019-02-08T05:29:44.779Z,100177.89
2019-02-08T05:32:13.381Z,100177.30
2019-02-08T05:34:42.302Z,100188.85
2019-02-08T05:37:10.856Z,100186.56
2019-02-08T05:39:39.442Z,100188.55
2019-02-08T05:42:08.027Z,100185.33
2019-02-08T05:44:36.572Z,100182.89
2019-02-08T05:47:05.135Z,100179.49
2019-02-08T05:49:33.727Z,100179.41
2019-02-08T05:52:02.271Z,100178.90
2019-02-08T05:54:37.427Z,100180.22
2019-02-08T05:57:06.345Z,100176.91
2019-02-08T05:59:37.862Z,100175.73
2019-02-08T06:02:12.793Z,100169.80
2019-02-08T06:12:28.242Z,100166.58
2019-02-08T06:15:04.120Z,100165.42
2019-02-08T06:17:33.216Z,100173.57
2019-02-08T06:20:05.173Z,100164.30
2019-02-08T06:22:43.486Z,100163.97
2019-02-08T06:25:18.732Z,100153.30
2019-02-08T06:27:57.548Z,100160.58
2019-02-08T06:30:27.673Z,100159.19
2019-02-08T06:32:56.196Z,100148.96
2019-02-08T06:35:26.420Z,100148.09
2019-02-08T06:37:54.991Z,100152.53
2019-02-08T06:40:24.906Z,100148.89
2019-02-08T06:42:53.461Z,100157.60
2019-02-08T06:45:22.884Z,100152.73
2019-02-08T06:47:51.539Z,100150.89
2019-02-08T06:50:21.146Z,100153.92
2019-02-08T06:52:49.695Z,100143.74
2019-02-08T06:55:18.259Z,100150.13
2019-02-08T06:57:51.984Z,100157.53
2019-02-08T07:00:39.964Z,100155.60
2019-02-08T07:03:26.313Z,100147.91
2019-02-08T07:06:12.780Z,100156.25
2019-02-08T07:08:52.631Z,100159.12
2019-02-08T07:11:57.922Z,100163.99
2019-02-08T07:15:06.811Z,100162.44
2019-02-08T07:17:52.469Z,100156.41
2019-02-08T07:20:40.032Z,100162.34
2019-02-08T07:23:22.312Z,100154.67
2019-02-08T07:26:06.151Z,100159.03
2019-02-08T07:28:47.440Z,100160.92
2019-02-08T07:31:33.923Z,100154.27
2019-02-08T07:34:18.119Z,100157.02
2019-02-08T07:37:02.514Z,100154.78
2019-02-08T07:39:56.318Z,100158.54
2019-02-08T07:42:43.215Z,100161.27
2019-02-08T07:45:23.477Z,100169.27
2019-02-08T07:48:04.645Z,100164.02
2019-02-08T07:50:52.244Z,100168.89
2019-02-08T07:53:45.867Z,100165.05
2019-02-08T07:56:26.252Z,100165.16
2019-02-08T07:59:04.108Z,100174.10
2019-02-08T08:01:48.447Z,100168.87
2019-02-08T08:04:34.732Z,100166.12
2019-02-08T08:07:37.584Z,100168.66
2019-02-08T08:10:36.437Z,100165.02
2019-02-08T08:13:30.150Z,100168.57
2019-02-08T08:16:35.967Z,100166.95
2019-02-08T08:19:15.996Z,100164.03
2019-02-08T08:22:00.177Z,100172.78
2019-02-08T08:24:48.430Z,100168.51
2019-02-08T08:27:35.001Z,100174.58
2019-02-08T08:30:15.095Z,100176.60
2019-02-08T08:33:01.692Z,100165.50
2019-02-08T08:35:47.942Z,100172.42
2019-02-08T08:38:58.501Z,100171.51
2019-02-08T08:42:11.030Z,100173.36
2019-02-08T08:45:25.579Z,100169.91
2019-02-08T08:48:37.461Z,100169.92
2019-02-08T08:51:38.642Z,100157.32
2019-02-08T08:54:44.484Z,100163.13
2019-02-08T08:57:22.519Z,100157.85
2019-02-08T09:00:41.774Z,100165.64
2019-02-08T09:03:34.127Z,100151.22
2019-02-08T09:06:32.513Z,100149.36
2019-02-08T09:09:46.261Z,100149.81
2019-02-08T09:13:05.100Z,100151.02
2019-02-08T09:16:14.921Z,100141.86
2019-02-08T09:19:19.805Z,100145.19
2019-02-08T09:22:21.890Z,100146.13
2019-02-08T09:25:08.255Z,100144.38
2019-02-08T09:28:15.444Z,100138.31
2019-02-08T09:31:15.505Z,100147.72
2019-02-08T09:34:36.915Z,100148.13
2019-02-08T09:37:50.013Z,100150.55
2019-02-08T09:41:02.944Z,100147.93
2019-02-08T09:44:07.301Z,100147.04
2019-02-08T09:47:17.544Z,100145.16
2019-02-08T09:50:29.457Z,100143.81
2019-02-08T09:53:20.689Z,100144.58
2019-02-08T09:56:20.675Z,100141.83
2019-02-08T09:59:28.703Z,100142.51
2019-02-08T10:02:25.537Z,100143.78
2019-02-08T10:05:35.263Z,100142.33
2019-02-08T10:08:55.464Z,100143.97
2019-02-08T10:11:55.524Z,100138.89
2019-02-08T10:15:01.717Z,100131.19
2019-02-08T10:18:10.213Z,100126.66
2019-02-08T10:21:07.198Z,100129.70
2019-02-08T10:24:23.041Z,100131.78
2019-02-08T10:27:39.053Z,100135.45
2019-02-08T10:30:35.143Z,100133.95
2019-02-08T10:33:44.633Z,100137.32
2019-02-08T10:36:50.004Z,100140.98
2019-02-08T10:40:04.726Z,100135.56
2019-02-08T10:43:29.058Z,100136.73
2019-02-08T10:46:35.191Z,100127.29
2019-02-08T10:49:33.801Z,100121.23
2019-02-08T10:52:39.472Z,100118.22
2019-02-08T10:55:24.263Z,100105.22
2019-02-08T10:58:22.287Z,100105.66
2019-02-08T11:01:19.344Z,100100.71
2019-02-08T11:04:16.686Z,100104.19
2019-02-08T11:07:00.913Z,100098.66
2019-02-08T11:10:05.999Z,100090.22
2019-02-08T11:13:10.815Z,100086.53
2019-02-08T11:16:33.026Z,100087.14
2019-02-08T11:19:19.427Z,100087.59
2019-02-08T11:21:49.602Z,100083.17
2019-02-08T11:24:20.129Z,100074.55
2019-02-08T11:26:52.387Z,100071.82
2019-02-08T11:29:21.320Z,100062.32
2019-02-08T11:31:50.174Z,100059.42
2019-02-08T11:34:18.747Z,100060.48
2019-02-08T11:36:47.336Z,100056.15
2019-02-08T11:39:18.212Z,100045.69
2019-02-08T11:41:47.758Z,100051.45
2019-02-08T11:44:16.874Z,100051.95
2019-02-08T11:46:46.686Z,100042.89
2019-02-08T11:49:15.248Z,100048.75
2019-02-08T11:51:43.815Z,100041.68
2019-02-08T11:54:12.364Z,100047.95
2019-02-08T11:56:40.921Z,100044.37
2019-02-08T11:59:09.511Z,100046.45
2019-02-08T12:01:41.372Z,100042.12
2019-02-08T12:04:12.114Z,100036.66
2019-02-08T12:06:43.123Z,100032.90
2019-02-08T12:09:14.309Z,100020.27
2019-02-08T12:11:44.357Z,100023.08
2019-02-08T12:14:15.716Z,100013.95
2019-02-08T12:16:44.289Z,100008.29
2019-02-08T12:19:13.203Z,100014.94
2019-02-08T12:21:42.109Z,100029.23
2019-02-08T12:24:10.664Z,100019.34
2019-02-08T12:26:39.261Z,100024.13
2019-02-08T12:29:09.339Z,100016.17
2019-02-08T12:31:38.262Z,100009.39
2019-02-08T12:34:08.186Z,100011.38
2019-02-08T12:36:37.103Z,100007.58
2019-02-08T12:39:32.738Z,99999.64
2019-02-08T12:42:37.344Z,99988.47
2019-02-08T12:45:20.700Z,99992.13
2019-02-08T12:47:54.469Z,99997.72
2019-02-08T12:50:24.511Z,99984.70
2019-02-08T12:52:53.492Z,99981.56
2019-02-08T12:55:25.697Z,100000.38
2019-02-08T12:58:01.446Z,99977.18
2019-02-08T13:00:38.918Z,99969.68
2019-02-08T13:03:21.112Z,99963.81
2019-02-08T13:06:05.036Z,99957.81
2019-02-08T13:08:36.185Z,99955.13
2019-02-08T13:11:08.702Z,99965.05
2019-02-08T13:13:44.849Z,99955.13
2019-02-08T13:16:15.005Z,99951.59
2019-02-08T13:18:50.290Z,99966.02
2019-02-08T13:21:28.922Z,99954.25
2019-02-08T13:28:04.464Z,99937.30
2019-02-08T13:30:36.853Z,99927.64
2019-02-08T13:33:11.313Z,99930.77
2019-02-08T13:36:18.839Z,99929.80
2019-02-08T13:39:10.464Z,99931.09
2019-02-08T14:26:05.391Z,99888.92
2019-02-08T14:45:00.573Z,99864.03
2019-02-08T14:47:42.246Z,99860.16
2019-02-08T14:50:23.030Z,99856.10
2019-02-08T14:53:21.337Z,99856.66
2019-02-08T14:55:55.311Z,99853.05
2019-02-08T14:58:24.239Z,99862.52
2019-02-08T15:00:52.794Z,99849.56
2019-02-08T15:03:21.912Z,99851.16
2019-02-08T15:05:50.838Z,99849.63
2019-02-08T15:08:19.387Z,99855.30
2019-02-08T15:10:49.264Z,99844.36
2019-02-08T15:13:18.208Z,99828.31
2019-02-08T15:15:46.755Z,99838.72
2019-02-08T15:18:15.330Z,99822.55
2019-02-08T15:20:43.955Z,99828.63
2019-02-08T15:23:12.828Z,99822.14
2019-02-08T15:25:41.385Z,99813.23
2019-02-08T15:28:10.322Z,99812.09
2019-02-08T15:30:38.864Z,99808.13
2019-02-08T15:33:07.428Z,99801.31
2019-02-08T15:35:36.004Z,99799.11
2019-02-08T15:38:04.598Z,99793.82
2019-02-08T15:40:39.340Z,99785.94
2019-02-08T15:43:08.472Z,99787.56
2019-02-08T15:45:37.062Z,99785.80
2019-02-08T15:48:05.646Z,99787.72
2019-02-08T15:50:34.243Z,99785.43
2019-02-08T15:53:02.863Z,99781.46
2019-02-08T15:55:34.076Z,99785.29
2019-02-08T15:58:02.609Z,99779.66
2019-02-08T16:00:31.240Z,99769.08
2019-02-08T16:02:59.861Z,99768.41
2019-02-08T16:05:28.714Z,99768.41
2019-02-08T16:07:57.263Z,99774.64
2019-02-08T16:10:25.810Z,99768.02
2019-02-08T16:12:54.401Z,99767.08
2019-02-08T16:15:24.752Z,99772.07
2019-02-08T16:17:53.308Z,99766.43
2019-02-08T16:20:22.853Z,99765.11
2019-02-08T16:22:51.943Z,99758.69
2019-02-08T16:25:21.489Z,99748.92
2019-02-08T16:27:50.032Z,99753.69
2019-02-08T16:30:20.766Z,99751.92
2019-02-08T16:32:49.371Z,99751.88
2019-02-08T16:35:19.850Z,99747.01
2019-02-08T16:37:48.775Z,99745.31
2019-02-08T16:40:19.444Z,99737.90
2019-02-08T16:42:48.008Z,99734.95
2019-02-08T16:45:22.340Z,99730.91
2019-02-08T16:47:52.121Z,99724.37
2019-02-08T16:50:23.398Z,99732.08
2019-02-08T16:52:52.521Z,99719.19
2019-02-08T16:55:21.663Z,99719.80
2019-02-08T16:57:50.591Z,99718.77
2019-02-08T17:01:20.866Z,99709.13
2019-02-08T17:08:44.887Z,99699.14
2019-02-08T18:22:47.157Z,99590.46
2019-02-08T18:25:16.280Z,99585.09
2019-02-08T18:27:44.846Z,99591.48
2019-02-08T18:30:14.778Z,99595.83
2019-02-08T18:32:43.349Z,99582.13
2019-02-08T18:35:12.279Z,99570.67
2019-02-08T18:37:40.833Z,99570.22
2019-02-08T18:40:11.518Z,99568.66
2019-02-08T18:42:40.642Z,99564.92
2019-02-08T18:45:11.399Z,99562.57
2019-02-08T18:47:39.969Z,99554.20
2019-02-08T18:50:13.792Z,99534.58
2019-02-08T18:52:42.712Z,99550.69
2019-02-08T18:55:11.268Z,99547.08
2019-02-08T18:57:40.620Z,99547.02
2019-02-08T19:00:12.954Z,99549.50
2019-02-08T19:02:41.505Z,99528.48
2019-02-08T19:05:10.975Z,99529.71
2019-02-08T19:07:39.509Z,99522.56
2019-02-08T19:10:10.524Z,99530.73
2019-02-08T19:12:39.110Z,99521.37
2019-02-08T19:15:08.726Z,99522.80
2019-02-08T19:17:37.266Z,99523.42
2019-02-08T19:20:06.979Z,99518.56
2019-02-08T19:22:35.588Z,99515.19
2019-02-08T19:25:05.459Z,99521.08
2019-02-08T19:27:34.035Z,99524.28
2019-02-08T19:30:02.574Z,99511.67
2019-02-08T19:32:31.116Z,99516.23
2019-02-08T19:34:59.701Z,99508.63
2019-02-08T19:37:28.245Z,99508.13
2019-02-08T19:39:56.817Z,99502.89
2019-02-08T19:42:26.027Z,99494.19
2019-02-08T19:44:54.575Z,99485.56
2019-02-08T19:47:23.194Z,99489.42
2019-02-08T19:49:51.766Z,99484.59
2019-02-08T19:52:20.352Z,99477.44
2019-02-08T19:54:48.897Z,99479.91
2019-02-08T19:57:17.432Z,99473.97
2019-02-08T19:59:46.022Z,99468.97
2019-02-08T20:02:14.568Z,99470.86
2019-02-08T20:04:43.122Z,99466.15
2019-02-08T20:07:11.681Z,99464.88
2019-02-08T20:09:40.314Z,99467.65
2019-02-08T20:12:08.890Z,99463.50
2019-02-08T20:14:37.424Z,99457.58
2019-02-08T20:17:05.970Z,99455.25
2019-02-08T20:19:35.079Z,99453.23
2019-02-08T20:22:03.989Z,99441.78
2019-02-08T20:24:32.558Z,99439.72
2019-02-08T20:27:01.135Z,99441.04
2019-02-08T20:29:29.690Z,99436.13
2019-02-08T20:31:58.224Z,99439.80
2019-02-08T20:34:26.800Z,99429.67
2019-02-08T20:36:55.359Z,99427.91
2019-02-08T20:39:23.918Z,99429.12
2019-02-08T20:41:52.495Z,99415.94
2019-02-08T20:44:21.548Z,99416.41
2019-02-08T20:46:50.411Z,99409.48
2019-02-08T20:49:19.306Z,99410.38
2019-02-08T20:51:48.241Z,99408.22
2019-02-08T20:54:17.165Z,99392.25
2019-02-08T20:56:47.265Z,99390.92
2019-02-08T20:59:16.643Z,99388.45
2019-02-08T21:01:45.884Z,99401.22
2019-02-08T21:04:15.491Z,99389.09
2019-02-08T21:06:44.824Z,99396.18
2019-02-08T21:09:14.207Z,99381.47
2019-02-08T21:11:43.226Z,99381.47
2019-02-08T21:14:12.203Z,99383.41
2019-02-08T21:16:41.117Z,99377.53
2019-02-08T21:19:09.703Z,99365.11
2019-02-08T21:21:38.262Z,99367.47
2019-02-08T21:24:06.844Z,99359.08
2019-02-08T21:26:35.393Z,99375.46
2019-02-08T21:29:04.329Z,99345.13
2019-02-08T21:31:32.997Z,99351.30
2019-02-08T21:34:02.699Z,99349.99
2019-02-08T21:36:38.883Z,99346.46
2019-02-08T21:39:02.349Z,99344.23
2019-02-08T21:41:31.548Z,99331.23
2019-02-08T21:44:00.465Z,99334.05
2019-02-08T21:46:29.764Z,99316.55
2019-02-08T21:48:58.689Z,99339.34
2019-02-08T21:51:28.309Z,99325.58
2019-02-08T21:53:58.212Z,99319.44
2019-02-08T21:56:27.644Z,99312.20
2019-02-08T21:58:56.457Z,99314.03
2019-02-08T22:01:25.745Z,99310.61
2019-02-08T22:03:54.725Z,99305.73
2019-02-08T22:06:23.651Z,99292.81
2019-02-08T22:08:52.612Z,99292.05
2019-02-08T22:11:21.886Z,99291.44
2019-02-08T22:13:50.784Z,99283.52
2019-02-08T22:16:20.326Z,99285.44
2019-02-08T22:18:49.216Z,99288.02
2019-02-08T22:21:18.526Z,99272.24
2019-02-08T22:23:48.121Z,99265.75
2019-02-08T22:26:17.936Z,99274.59
2019-02-08T22:28:46.570Z,99273.27
2019-02-08T22:31:15.104Z,99276.41
2019-02-08T22:33:44.029Z,99255.93
2019-02-08T22:36:12.614Z,99256.91
2019-02-08T22:38:41.161Z,99256.43
2019-02-08T22:41:09.749Z,99251.08
2019-02-08T22:43:38.296Z,99245.84
2019-02-08T22:46:06.842Z,99241.87
2019-02-08T22:48:35.423Z,99236.86
2019-02-08T22:51:03.974Z,99235.59
2019-02-08T22:53:32.545Z,99221.88
2019-02-08T22:56:01.098Z,99226.14
2019-02-08T22:58:30.091Z,99216.11
2019-02-08T23:01:42.948Z,99204.08
2019-02-08T23:04:11.531Z,99209.11
2019-02-08T23:06:44.964Z,99201.41
2019-02-08T23:09:19.487Z,99197.62
2019-02-08T23:11:48.038Z,99195.22
2019-02-08T23:14:16.588Z,99193.26
2019-02-08T23:16:45.187Z,99187.63
2019-02-08T23:19:13.737Z,99190.05
2019-02-08T23:21:42.328Z,99191.06
2019-02-08T23:24:10.904Z,99176.32
2019-02-08T23:26:39.485Z,99170.50
2019-02-08T23:29:08.019Z,99173.86
2019-02-08T23:31:36.606Z,99169.44
2019-02-08T23:34:05.178Z,99153.56
2019-02-08T23:36:33.723Z,99161.73
2019-02-08T23:39:02.300Z,99157.77
2019-02-08T23:41:30.846Z,99170.70
2019-02-08T23:43:59.420Z,99159.91
2019-02-08T23:46:27.971Z,99156.42
2019-02-08T23:48:56.557Z,99148.59
2019-02-08T23:51:25.099Z,99148.89
2019-02-08T23:53:53.652Z,99138.11
2019-02-08T23:56:22.751Z,99145.66
2019-02-08T23:58:51.291Z,99146.55
